Time;durP1;ratioP1;P1;durP2;ratioP2;P2;SDS_P1;SDS_P2;PMS_P1;PMS_P2;Temp;Humidity;BMP_temperature;BMP_pressure;BME280_temperature;BME280_humidity;BME280_pressure;Samples;Min_cycle;Max_cycle;Signal;HPM_P1;HPM_P2
2023/12/30 00:01:21;;;;;;;2.30;1.30;;;;;;;;;;5055580;28;20025;-57
2023/12/30 00:03:48;;;;;;;1.83;1.02;;;;;;;;;;5055700;28;20056;-58
2023/12/30 00:06:18;;;;;;;2.50;1.45;;;;;;;;;;5055746;28;20090;-59
2023/12/30 00:08:44;;;;;;;2.03;1.10;;;;;;;;;;5055909;28;20409;-60
2023/12/30 00:11:10;;;;;;;3.90;1.80;;;;;;;;;;5055561;28;20029;-60
2023/12/30 00:13:39;;;;;;;2.75;1.67;;;;;;;;;;5055984;28;20096;-58
2023/12/30 00:16:05;;;;;;;1.90;1.40;;;;;;;;;;5055360;28;20033;-58
2023/12/30 00:18:31;;;;;;;2.70;1.88;;;;;;;;;;5055709;28;20180;-57
2023/12/30 00:20:58;;;;;;;2.08;1.23;;;;;;;;;;5055396;28;20123;-57
2023/12/30 00:23:24;;;;;;;2.55;1.58;;;;;;;;;;5055285;28;20375;-58
2023/12/30 00:25:49;;;;;;;2.33;1.30;;;;;;;;;;5055282;28;20036;-58
2023/12/30 00:28:16;;;;;;;3.70;1.90;;;;;;;;;;5055589;28;20021;-58
2023/12/30 00:30:42;;;;;;;2.60;1.38;;;;;;;;;;5055652;28;20029;-58
2023/12/30 00:33:08;;;;;;;2.22;1.58;;;;;;;;;;5055202;28;20112;-59
2023/12/30 00:35:33;;;;;;;2.25;1.15;;;;;;;;;;5055004;28;20083;-59
2023/12/30 00:37:59;;;;;;;3.08;1.55;;;;;;;;;;5055713;28;20429;-59
2023/12/30 00:40:25;;;;;;;2.15;1.40;;;;;;;;;;5054995;28;20028;-58
2023/12/30 00:42:51;;;;;;;2.70;1.75;;;;;;;;;;5055217;28;20021;-59
2023/12/30 00:45:17;;;;;;;2.03;1.02;;;;;;;;;;5054950;28;20031;-58
2023/12/30 00:47:43;;;;;;;2.10;1.30;;;;;;;;;;5055348;28;20031;-58
2023/12/30 00:50:09;;;;;;;3.75;2.42;;;;;;;;;;5055156;28;20460;-58
2023/12/30 00:52:35;;;;;;;2.40;1.70;;;;;;;;;;5054382;28;20029;-59
2023/12/30 00:55:01;;;;;;;2.83;1.42;;;;;;;;;;5054438;28;20064;-59
2023/12/30 00:57:27;;;;;;;4.30;1.48;;;;;;;;;;5055559;28;20093;-59
2023/12/30 00:59:53;;;;;;;3.22;1.90;;;;;;;;;;5054643;28;20021;-59
2023/12/30 01:02:19;;;;;;;2.15;1.40;;;;;;;;;;5054974;28;20028;-59
2023/12/30 01:04:45;;;;;;;2.30;1.35;;;;;;;;;;5054585;28;20032;-59
2023/12/30 01:07:11;;;;;;;2.55;1.70;;;;;;;;;;5054814;28;20066;-59
2023/12/30 01:09:36;;;;;;;2.33;1.65;;;;;;;;;;5054214;28;20108;-59
2023/12/30 01:12:03;;;;;;;1.95;1.20;;;;;;;;;;5054366;28;20075;-59
2023/12/30 01:14:29;;;;;;;1.95;0.95;;;;;;;;;;5054374;28;20024;-59
2023/12/30 01:16:55;;;;;;;2.50;1.52;;;;;;;;;;5054308;28;20083;-59
2023/12/30 01:19:21;;;;;;;1.83;1.17;;;;;;;;;;5054907;28;20029;-58
2023/12/30 01:21:48;;;;;;;1.92;1.30;;;;;;;;;;5054523;28;20359;-59
2023/12/30 01:24:14;;;;;;;2.03;1.20;;;;;;;;;;5054109;28;20123;-59
2023/12/30 01:26:40;;;;;;;2.50;1.30;;;;;;;;;;5054450;28;20056;-59
2023/12/30 01:29:06;;;;;;;2.85;1.65;;;;;;;;;;5054497;28;20056;-58
2023/12/30 01:31:34;;;;;;;1.50;0.95;;;;;;;;;;5054692;28;20021;-58
2023/12/30 01:34:00;;;;;;;2.22;1.35;;;;;;;;;;5053979;28;20028;-59
2023/12/30 01:36:25;;;;;;;2.90;1.20;;;;;;;;;;5053957;28;20379;-58
2023/12/30 01:38:52;;;;;;;2.30;1.30;;;;;;;;;;5054509;28;20025;-58
2023/12/30 01:41:19;;;;;;;1.52;0.98;;;;;;;;;;5053912;28;20463;-58
2023/12/30 01:43:45;;;;;;;1.67;1.08;;;;;;;;;;5053935;28;20083;-59
2023/12/30 01:46:12;;;;;;;2.10;1.10;;;;;;;;;;5053594;28;20033;-59
2023/12/30 01:48:38;;;;;;;5.18;1.50;;;;;;;;;;5054102;28;20029;-59
2023/12/30 01:51:08;;;;;;;3.40;1.75;;;;;;;;;;5053880;28;20557;-59
2023/12/30 01:53:37;;;;;;;3.50;1.70;;;;;;;;;;5054068;28;20025;-59
2023/12/30 01:56:03;;;;;;;4.88;1.42;;;;;;;;;;5053765;28;20127;-59
2023/12/30 01:58:32;;;;;;;2.00;1.30;;;;;;;;;;5053704;28;20143;-59
2023/12/30 02:00:59;;;;;;;2.72;1.40;;;;;;;;;;5053237;28;20069;-59
2023/12/30 02:03:25;;;;;;;2.20;1.50;;;;;;;;;;5054124;28;20037;-59
2023/12/30 02:05:50;;;;;;;1.88;1.25;;;;;;;;;;5054187;28;20025;-59
2023/12/30 02:08:17;;;;;;;2.80;1.58;;;;;;;;;;5053773;28;20028;-59
2023/12/30 02:10:43;;;;;;;2.55;1.63;;;;;;;;;;5053862;28;20025;-59
2023/12/30 02:13:09;;;;;;;2.22;1.40;;;;;;;;;;5053810;28;20049;-59
2023/12/30 02:15:35;;;;;;;2.30;1.25;;;;;;;;;;5053749;28;20025;-59
2023/12/30 02:18:01;;;;;;;2.90;1.70;;;;;;;;;;5054070;28;20510;-59
2023/12/30 02:20:28;;;;;;;2.30;1.52;;;;;;;;;;5053791;28;20022;-59
2023/12/30 02:22:53;;;;;;;5.03;1.90;;;;;;;;;;5053411;28;20409;-59
2023/12/30 02:25:20;;;;;;;3.13;1.77;;;;;;;;;;5053692;28;20116;-59
2023/12/30 02:27:46;;;;;;;2.45;1.17;;;;;;;;;;5053959;28;20363;-59
2023/12/30 02:30:13;;;;;;;2.70;1.50;;;;;;;;;;5053438;28;20455;-58
2023/12/30 02:32:39;;;;;;;2.30;1.58;;;;;;;;;;5054170;28;20112;-58
2023/12/30 02:35:05;;;;;;;3.53;1.90;;;;;;;;;;5053312;28;20171;-59
2023/12/30 02:37:31;;;;;;;3.05;1.88;;;;;;;;;;5053784;28;20439;-59
2023/12/30 02:39:57;;;;;;;2.67;1.63;;;;;;;;;;5053350;28;20056;-59
2023/12/30 02:42:23;;;;;;;2.78;1.67;;;;;;;;;;5053734;28;20083;-59
2023/12/30 02:44:49;;;;;;;2.33;1.48;;;;;;;;;;5053077;28;20029;-59
2023/12/30 02:47:15;;;;;;;2.25;1.50;;;;;;;;;;5053472;28;20112;-59
2023/12/30 02:49:44;;;;;;;2.88;1.67;;;;;;;;;;5053244;28;20059;-58
2023/12/30 02:52:10;;;;;;;3.85;1.98;;;;;;;;;;5053680;28;20033;-59
2023/12/30 02:54:36;;;;;;;1.77;1.13;;;;;;;;;;5053237;28;20033;-59
2023/12/30 02:57:03;;;;;;;4.38;1.73;;;;;;;;;;5054649;28;20328;-59
2023/12/30 02:59:29;;;;;;;2.55;1.50;;;;;;;;;;5056932;28;20025;-59
2023/12/30 03:01:55;;;;;;;2.28;1.25;;;;;;;;;;5057110;28;20190;-58
2023/12/30 03:04:21;;;;;;;1.92;1.25;;;;;;;;;;5056895;28;20025;-59
2023/12/30 03:06:47;;;;;;;2.42;1.23;;;;;;;;;;5056548;28;20123;-58
2023/12/30 03:09:13;;;;;;;2.85;1.33;;;;;;;;;;5057331;28;20358;-59
2023/12/30 03:11:39;;;;;;;3.85;1.55;;;;;;;;;;5056965;28;20508;-59
2023/12/30 03:14:05;;;;;;;2.90;1.40;;;;;;;;;;5056641;28;20032;-58
2023/12/30 03:16:31;;;;;;;3.35;1.65;;;;;;;;;;5056875;28;20037;-59
2023/12/30 03:18:57;;;;;;;1.77;1.27;;;;;;;;;;5057151;28;20025;-59
2023/12/30 03:21:24;;;;;;;1.98;1.27;;;;;;;;;;5057013;28;20032;-59
2023/12/30 03:23:50;;;;;;;2.50;1.73;;;;;;;;;;5056408;28;20474;-58
2023/12/30 03:26:16;;;;;;;3.58;1.08;;;;;;;;;;5056751;28;20035;-59
2023/12/30 03:28:43;;;;;;;1.73;1.13;;;;;;;;;;5056947;28;20100;-59
2023/12/30 03:31:19;;;;;;;1.63;1.08;;;;;;;;;;5056338;28;20137;-59
2023/12/30 03:33:45;;;;;;;2.47;1.20;;;;;;;;;;5056667;28;20417;-59
2023/12/30 03:36:14;;;;;;;4.68;1.55;;;;;;;;;;5056150;28;20037;-59
2023/12/30 03:38:40;;;;;;;4.10;1.50;;;;;;;;;;5056746;28;20441;-59
2023/12/30 03:41:06;;;;;;;2.47;1.65;;;;;;;;;;5055899;28;20057;-59
2023/12/30 03:43:31;;;;;;;2.33;1.25;;;;;;;;;;5055814;28;20017;-59
2023/12/30 03:45:57;;;;;;;2.33;1.48;;;;;;;;;;5056134;28;20036;-59
2023/12/30 03:48:23;;;;;;;4.65;1.27;;;;;;;;;;5056356;28;20025;-59
2023/12/30 03:50:49;;;;;;;2.22;1.20;;;;;;;;;;5056054;28;20029;-59
2023/12/30 03:53:18;;;;;;;2.33;1.33;;;;;;;;;;5056548;28;20409;-59
2023/12/30 03:55:44;;;;;;;3.28;1.42;;;;;;;;;;5055744;28;20060;-59
2023/12/30 03:58:10;;;;;;;3.15;1.63;;;;;;;;;;5055845;28;20033;-59
2023/12/30 04:00:36;;;;;;;2.38;1.20;;;;;;;;;;5056348;28;20454;-59
2023/12/30 04:03:02;;;;;;;2.00;1.10;;;;;;;;;;5055649;28;20366;-59
2023/12/30 04:05:28;;;;;;;4.50;1.27;;;;;;;;;;5056550;28;20021;-59
2023/12/30 04:07:54;;;;;;;2.35;1.27;;;;;;;;;;5055658;28;20055;-59
2023/12/30 04:10:20;;;;;;;2.15;1.08;;;;;;;;;;5055646;28;20462;-59
2023/12/30 04:12:46;;;;;;;2.30;1.20;;;;;;;;;;5055822;28;20116;-59
2023/12/30 04:15:12;;;;;;;1.88;1.20;;;;;;;;;;5055577;28;20418;-59
2023/12/30 04:17:38;;;;;;;3.15;1.10;;;;;;;;;;5055771;28;20035;-59
2023/12/30 04:20:05;;;;;;;3.25;1.60;;;;;;;;;;5055747;28;20032;-59
2023/12/30 04:22:31;;;;;;;2.20;1.40;;;;;;;;;;5055357;28;20029;-59
2023/12/30 04:24:57;;;;;;;2.78;1.45;;;;;;;;;;5055957;28;20040;-59
2023/12/30 04:27:23;;;;;;;2.70;1.25;;;;;;;;;;5055623;28;20078;-59
2023/12/30 04:29:49;;;;;;;3.60;1.58;;;;;;;;;;5055624;28;20040;-59
2023/12/30 04:32:15;;;;;;;1.80;1.00;;;;;;;;;;5055771;28;20398;-59
2023/12/30 04:34:41;;;;;;;1.90;0.80;;;;;;;;;;5055163;28;20407;-59
2023/12/30 04:37:07;;;;;;;2.00;0.90;;;;;;;;;;5055027;28;20036;-59
2023/12/30 04:39:33;;;;;;;1.70;0.90;;;;;;;;;;5055592;28;20033;-59
2023/12/30 04:41:59;;;;;;;4.13;1.05;;;;;;;;;;5055057;28;20116;-59
2023/12/30 04:44:25;;;;;;;2.00;1.00;;;;;;;;;;5055543;28;20082;-59
2023/12/30 04:46:51;;;;;;;2.33;1.10;;;;;;;;;;5054925;28;20374;-59
2023/12/30 04:49:17;;;;;;;2.47;1.20;;;;;;;;;;5054648;28;20059;-59
2023/12/30 04:51:43;;;;;;;4.22;1.05;;;;;;;;;;5055055;28;20036;-59
2023/12/30 04:54:09;;;;;;;2.13;0.82;;;;;;;;;;5054777;28;20040;-59
2023/12/30 04:56:35;;;;;;;1.70;0.95;;;;;;;;;;5055366;28;20049;-59
2023/12/30 04:59:01;;;;;;;2.80;0.80;;;;;;;;;;5054668;28;20021;-59
2023/12/30 05:01:26;;;;;;;1.73;0.80;;;;;;;;;;5054135;28;20078;-59
2023/12/30 05:03:53;;;;;;;4.38;1.23;;;;;;;;;;5054558;28;20032;-59
2023/12/30 05:06:23;;;;;;;1.52;0.93;;;;;;;;;;5054206;28;20029;-59
2023/12/30 05:08:49;;;;;;;1.92;0.50;;;;;;;;;;5055056;28;20359;-59
2023/12/30 05:11:15;;;;;;;1.15;0.50;;;;;;;;;;5054778;28;20033;-59
2023/12/30 05:13:42;;;;;;;2.00;0.80;;;;;;;;;;5054697;28;20027;-59
2023/12/30 05:16:08;;;;;;;3.78;1.10;;;;;;;;;;5054529;28;20029;-59
2023/12/30 05:18:34;;;;;;;3.15;0.60;;;;;;;;;;5054850;28;20075;-59
2023/12/30 05:21:00;;;;;;;2.58;0.77;;;;;;;;;;5053471;28;20426;-59
2023/12/30 05:23:26;;;;;;;2.17;0.75;;;;;;;;;;5054280;28;20029;-59
2023/12/30 05:25:52;;;;;;;1.77;0.98;;;;;;;;;;5053892;28;20040;-59
2023/12/30 05:28:18;;;;;;;2.03;0.77;;;;;;;;;;5054218;28;20025;-59
2023/12/30 05:30:44;;;;;;;1.05;0.50;;;;;;;;;;5054139;28;20072;-59
2023/12/30 05:33:10;;;;;;;2.70;1.00;;;;;;;;;;5054129;28;20119;-59
2023/12/30 05:35:36;;;;;;;2.70;1.20;;;;;;;;;;5054080;28;20380;-59
2023/12/30 05:38:03;;;;;;;4.22;0.93;;;;;;;;;;5054567;28;20044;-59
2023/12/30 05:40:29;;;;;;;1.77;0.80;;;;;;;;;;5053834;28;20112;-59
2023/12/30 05:42:55;;;;;;;1.27;0.50;;;;;;;;;;5054123;28;20475;-59
2023/12/30 05:45:21;;;;;;;1.90;0.60;;;;;;;;;;5054293;28;20032;-59
2023/12/30 05:47:47;;;;;;;1.70;0.65;;;;;;;;;;5054425;28;20029;-59
2023/12/30 05:50:13;;;;;;;2.08;0.70;;;;;;;;;;5054096;28;20032;-59
2023/12/30 05:52:39;;;;;;;1.63;0.68;;;;;;;;;;5053727;28;20109;-59
2023/12/30 05:55:05;;;;;;;1.45;0.70;;;;;;;;;;5054544;28;20025;-59
2023/12/30 05:57:31;;;;;;;1.55;0.80;;;;;;;;;;5054785;28;20045;-59
2023/12/30 05:59:57;;;;;;;1.13;0.80;;;;;;;;;;5053754;28;20025;-59
2023/12/30 06:02:23;;;;;;;1.15;0.40;;;;;;;;;;5053641;28;20032;-59
2023/12/30 06:04:49;;;;;;;1.70;0.70;;;;;;;;;;5053720;28;20052;-59
2023/12/30 06:07:15;;;;;;;2.42;0.75;;;;;;;;;;5054341;28;20032;-59
2023/12/30 06:09:41;;;;;;;1.35;0.60;;;;;;;;;;5053880;28;20025;-59
2023/12/30 06:12:08;;;;;;;2.63;0.40;;;;;;;;;;5054443;28;20504;-59
2023/12/30 06:14:36;;;;;;;1.50;0.65;;;;;;;;;;5053874;28;20112;-59
2023/12/30 06:17:02;;;;;;;3.00;0.40;;;;;;;;;;5053565;28;20046;-59
2023/12/30 06:19:28;;;;;;;2.65;0.95;;;;;;;;;;5053575;28;20451;-59
2023/12/30 06:21:54;;;;;;;0.80;0.40;;;;;;;;;;5053578;28;20032;-59
2023/12/30 06:24:21;;;;;;;2.28;0.63;;;;;;;;;;5053548;28;20108;-59
2023/12/30 06:26:47;;;;;;;2.42;0.93;;;;;;;;;;5054106;28;20029;-60
2023/12/30 06:29:13;;;;;;;0.68;0.35;;;;;;;;;;5053565;28;20039;-59
2023/12/30 06:31:42;;;;;;;3.95;0.50;;;;;;;;;;5055115;28;20021;-60
2023/12/30 06:34:09;;;;;;;1.42;0.57;;;;;;;;;;5057547;28;20068;-60
2023/12/30 06:36:35;;;;;;;1.90;0.70;;;;;;;;;;5057376;28;20040;-59
2023/12/30 06:39:01;;;;;;;0.90;0.55;;;;;;;;;;5057521;28;20021;-59
2023/12/30 06:41:27;;;;;;;1.90;0.98;;;;;;;;;;5057322;28;20078;-59
2023/12/30 06:43:53;;;;;;;2.45;1.05;;;;;;;;;;5057342;28;20025;-60
2023/12/30 06:46:20;;;;;;;2.08;0.82;;;;;;;;;;5057320;28;20025;-59
2023/12/30 06:48:46;;;;;;;4.13;0.88;;;;;;;;;;5057876;28;20033;-60
2023/12/30 06:51:12;;;;;;;1.13;0.60;;;;;;;;;;5057285;28;20131;-59
2023/12/30 06:53:38;;;;;;;1.10;0.57;;;;;;;;;;5056843;28;20021;-60
2023/12/30 06:56:08;;;;;;;3.17;0.70;;;;;;;;;;5056863;28;20056;-60
2023/12/30 06:58:34;;;;;;;3.45;1.83;;;;;;;;;;5057047;28;20033;-59
2023/12/30 07:00:59;;;;;;;2.72;0.80;;;;;;;;;;5057242;28;20569;-59
2023/12/30 07:03:25;;;;;;;2.20;0.90;;;;;;;;;;5057021;28;20060;-59
2023/12/30 07:05:51;;;;;;;3.05;0.98;;;;;;;;;;5056980;28;20025;-59
2023/12/30 07:08:17;;;;;;;2.08;0.93;;;;;;;;;;5057229;28;20118;-59
2023/12/30 07:10:43;;;;;;;6.18;1.10;;;;;;;;;;5057171;28;20029;-59
2023/12/30 07:13:09;;;;;;;1.38;0.68;;;;;;;;;;5057259;28;20098;-59
2023/12/30 07:15:35;;;;;;;1.95;0.93;;;;;;;;;;5056764;28;20103;-59
2023/12/30 07:18:02;;;;;;;1.40;0.73;;;;;;;;;;5057275;28;20113;-59
2023/12/30 07:20:28;;;;;;;2.80;1.13;;;;;;;;;;5056723;28;20025;-59
2023/12/30 07:22:54;;;;;;;1.73;0.82;;;;;;;;;;5056604;28;20100;-59
2023/12/30 07:25:20;;;;;;;3.35;1.38;;;;;;;;;;5056604;28;20029;-59
2023/12/30 07:27:47;;;;;;;3.10;1.08;;;;;;;;;;5056599;28;20035;-59
2023/12/30 07:30:13;;;;;;;3.28;1.48;;;;;;;;;;5056398;28;20017;-59
2023/12/30 07:32:39;;;;;;;2.88;0.95;;;;;;;;;;5056420;28;20067;-59
2023/12/30 07:35:06;;;;;;;2.35;1.10;;;;;;;;;;5056417;28;20064;-59
2023/12/30 07:37:32;;;;;;;3.05;1.33;;;;;;;;;;5056651;28;20037;-59
2023/12/30 07:39:59;;;;;;;2.72;1.20;;;;;;;;;;5056286;28;20021;-59
2023/12/30 07:42:25;;;;;;;3.15;1.00;;;;;;;;;;5055717;28;20040;-59
2023/12/30 07:44:52;;;;;;;2.58;1.23;;;;;;;;;;5055841;28;20025;-59
2023/12/30 07:47:18;;;;;;;1.48;0.88;;;;;;;;;;5056800;28;20040;-59
2023/12/30 07:49:44;;;;;;;2.63;1.30;;;;;;;;;;5056100;28;20075;-59
2023/12/30 07:52:10;;;;;;;2.72;1.30;;;;;;;;;;5056572;28;20029;-59
2023/12/30 07:54:36;;;;;;;6.30;0.98;;;;;;;;;;5056501;28;20055;-60
2023/12/30 07:57:03;;;;;;;1.85;1.20;;;;;;;;;;5056261;28;20044;-59
2023/12/30 07:59:29;;;;;;;1.80;1.00;;;;;;;;;;5055857;28;20032;-59
2023/12/30 08:01:56;;;;;;;2.08;1.27;;;;;;;;;;5055254;28;20033;-59
2023/12/30 08:04:25;;;;;;;2.40;1.20;;;;;;;;;;5055861;28;20059;-59
2023/12/30 08:06:51;;;;;;;2.50;1.20;;;;;;;;;;5056085;28;20481;-60
2023/12/30 08:09:17;;;;;;;3.60;1.23;;;;;;;;;;5056147;28;20099;-59
2023/12/30 08:11:43;;;;;;;2.20;1.30;;;;;;;;;;5056310;28;20029;-59
2023/12/30 08:14:09;;;;;;;6.88;2.25;;;;;;;;;;5055769;28;20036;-59
2023/12/30 08:16:36;;;;;;;2.22;1.25;;;;;;;;;;5056070;28;20033;-59
2023/12/30 08:19:02;;;;;;;1.92;1.10;;;;;;;;;;5055640;28;20031;-59
2023/12/30 08:21:28;;;;;;;1.80;1.20;;;;;;;;;;5055601;28;20056;-59
2023/12/30 08:23:56;;;;;;;4.15;1.10;;;;;;;;;;5055227;28;20064;-59
2023/12/30 08:26:22;;;;;;;2.03;1.00;;;;;;;;;;5056240;28;20036;-59
2023/12/30 08:28:48;;;;;;;3.38;1.58;;;;;;;;;;5056093;28;20061;-59
2023/12/30 08:31:14;;;;;;;1.75;1.15;;;;;;;;;;5055294;28;20486;-59
2023/12/30 08:33:40;;;;;;;1.38;0.82;;;;;;;;;;5055776;28;20112;-59
2023/12/30 08:36:06;;;;;;;2.58;1.10;;;;;;;;;;5055195;28;20037;-59
2023/12/30 08:38:32;;;;;;;5.32;1.65;;;;;;;;;;5056070;28;20029;-59
2023/12/30 08:40:59;;;;;;;2.40;1.30;;;;;;;;;;5055717;28;20033;-59
2023/12/30 08:43:24;;;;;;;3.03;1.38;;;;;;;;;;5055025;28;20028;-60
2023/12/30 08:45:50;;;;;;;2.65;1.10;;;;;;;;;;5055025;28;20112;-59
2023/12/30 08:48:16;;;;;;;3.22;1.65;;;;;;;;;;5054803;28;20059;-59
2023/12/30 08:50:44;;;;;;;3.58;1.00;;;;;;;;;;5054808;28;20103;-59
2023/12/30 08:53:31;;;;;;;3.10;1.33;;;;;;;;;;5054528;28;20032;-59
2023/12/30 08:55:57;;;;;;;4.38;1.45;;;;;;;;;;5054714;28;20053;-59
2023/12/30 08:58:26;;;;;;;4.63;1.35;;;;;;;;;;5055037;28;20434;-59
2023/12/30 09:00:53;;;;;;;2.15;1.20;;;;;;;;;;5054365;28;20017;-59
2023/12/30 09:03:19;;;;;;;2.80;1.40;;;;;;;;;;5054472;28;20163;-59
2023/12/30 09:05:45;;;;;;;1.73;0.85;;;;;;;;;;5054490;28;20060;-59
2023/12/30 09:08:11;;;;;;;3.00;1.50;;;;;;;;;;5054971;28;20120;-59
2023/12/30 09:10:38;;;;;;;2.25;1.40;;;;;;;;;;5054357;28;20029;-59
2023/12/30 09:13:04;;;;;;;1.67;0.85;;;;;;;;;;5054868;28;20060;-59
2023/12/30 09:15:30;;;;;;;3.50;1.08;;;;;;;;;;5054672;28;20477;-59
2023/12/30 09:17:58;;;;;;;1.83;1.00;;;;;;;;;;5054445;28;20104;-59
2023/12/30 09:20:24;;;;;;;2.08;0.93;;;;;;;;;;5054145;28;20033;-59
2023/12/30 09:22:50;;;;;;;3.03;1.30;;;;;;;;;;5054150;28;20116;-59
2023/12/30 09:25:16;;;;;;;2.75;1.20;;;;;;;;;;5054456;28;20032;-59
2023/12/30 09:27:42;;;;;;;2.20;1.20;;;;;;;;;;5054373;28;20029;-59
2023/12/30 09:30:08;;;;;;;1.98;0.80;;;;;;;;;;5054415;28;20064;-59
2023/12/30 09:32:34;;;;;;;2.58;0.90;;;;;;;;;;5053946;28;20470;-60
2023/12/30 09:35:03;;;;;;;2.65;1.02;;;;;;;;;;5054267;28;20024;-60
2023/12/30 09:37:29;;;;;;;2.17;1.27;;;;;;;;;;5054219;28;20044;-59
2023/12/30 09:39:55;;;;;;;2.03;0.68;;;;;;;;;;5054127;28;20439;-60
2023/12/30 09:42:21;;;;;;;3.13;1.10;;;;;;;;;;5053555;28;20025;-58
2023/12/30 09:44:47;;;;;;;1.75;0.98;;;;;;;;;;5053732;28;20029;-56
2023/12/30 09:47:13;;;;;;;2.88;0.90;;;;;;;;;;5054465;28;20029;-57
2023/12/30 09:49:40;;;;;;;1.63;0.70;;;;;;;;;;5054109;28;20029;-57
2023/12/30 09:52:07;;;;;;;1.05;0.70;;;;;;;;;;5053933;28;20120;-57
2023/12/30 09:54:33;;;;;;;2.35;1.20;;;;;;;;;;5053319;28;20021;-55
2023/12/30 09:57:00;;;;;;;0.85;0.45;;;;;;;;;;5054285;28;20140;-56
2023/12/30 09:59:26;;;;;;;1.70;0.70;;;;;;;;;;5053729;28;20411;-57
2023/12/30 10:01:54;;;;;;;1.38;0.60;;;;;;;;;;5053577;28;20457;-58
2023/12/30 10:04:20;;;;;;;1.70;0.65;;;;;;;;;;5053595;28;20043;-56
2023/12/30 10:06:47;;;;;;;1.73;0.70;;;;;;;;;;5053434;28;20053;-57
2023/12/30 10:09:13;;;;;;;1.70;0.47;;;;;;;;;;5053908;28;20443;-58
2023/12/30 10:11:39;;;;;;;2.88;0.85;;;;;;;;;;5053656;28;20039;-56
2023/12/30 10:14:06;;;;;;;1.25;0.65;;;;;;;;;;5053938;28;20047;-58
2023/12/30 10:16:31;;;;;;;1.08;0.55;;;;;;;;;;5053470;28;20048;-58
2023/12/30 10:18:57;;;;;;;2.15;0.98;;;;;;;;;;5054154;28;20447;-58
2023/12/30 10:21:26;;;;;;;2.58;0.73;;;;;;;;;;5053843;28;20021;-57
2023/12/30 10:23:53;;;;;;;0.73;0.30;;;;;;;;;;5053503;28;20033;-58
2023/12/30 10:26:20;;;;;;;3.70;0.73;;;;;;;;;;5053480;28;20037;-58
2023/12/30 10:28:46;;;;;;;1.38;0.60;;;;;;;;;;5053992;28;20108;-54
2023/12/30 10:31:16;;;;;;;1.85;0.65;;;;;;;;;;5053415;28;20040;-54
2023/12/30 10:33:42;;;;;;;1.02;0.30;;;;;;;;;;5053399;28;20064;-54
2023/12/30 10:36:08;;;;;;;1.00;0.40;;;;;;;;;;5053244;28;20033;-57
2023/12/30 10:38:35;;;;;;;0.73;0.35;;;;;;;;;;5053348;28;20074;-57
2023/12/30 10:41:01;;;;;;;3.40;0.70;;;;;;;;;;5053123;28;20040;-58
2023/12/30 10:43:27;;;;;;;1.77;0.45;;;;;;;;;;5052855;28;20025;-59
2023/12/30 10:46:00;;;;;;;0.50;0.20;;;;;;;;;;5053036;28;20068;-59
2023/12/30 10:48:33;;;;;;;1.05;0.45;;;;;;;;;;5053084;28;20030;-58
2023/12/30 10:51:01;;;;;;;1.48;0.63;;;;;;;;;;5053149;28;20052;-59
2023/12/30 10:53:30;;;;;;;1.27;0.60;;;;;;;;;;5052934;28;20021;-58
2023/12/30 10:56:02;;;;;;;1.65;0.65;;;;;;;;;;5052797;28;20049;-59
2023/12/30 10:58:30;;;;;;;1.25;0.55;;;;;;;;;;5053175;28;20029;-58
2023/12/30 11:01:01;;;;;;;2.00;0.40;;;;;;;;;;5052498;28;20111;-59
2023/12/30 11:03:27;;;;;;;1.00;0.50;;;;;;;;;;5053061;28;20531;-58
2023/12/30 11:06:02;;;;;;;2.00;0.70;;;;;;;;;;5052438;28;20497;-58
2023/12/30 11:08:29;;;;;;;2.10;0.30;;;;;;;;;;5053401;28;20071;-58
2023/12/30 11:10:56;;;;;;;2.88;0.52;;;;;;;;;;5053082;28;20406;-59
2023/12/30 11:13:22;;;;;;;0.57;0.30;;;;;;;;;;5053295;28;20355;-59
2023/12/30 11:15:48;;;;;;;0.73;0.45;;;;;;;;;;5052824;28;20108;-58
2023/12/30 11:18:14;;;;;;;2.15;0.98;;;;;;;;;;5053561;28;20057;-58
2023/12/30 11:20:46;;;;;;;0.82;0.45;;;;;;;;;;5056285;28;20040;-58
2023/12/30 11:23:14;;;;;;;1.08;0.50;;;;;;;;;;5057100;28;20029;-58
2023/12/30 11:25:43;;;;;;;0.77;0.40;;;;;;;;;;5056395;28;20029;-59
2023/12/30 11:28:13;;;;;;;0.45;0.30;;;;;;;;;;5056345;28;20037;-59
2023/12/30 11:30:39;;;;;;;1.92;0.45;;;;;;;;;;5056270;28;20060;-59
2023/12/30 11:33:05;;;;;;;5.10;0.73;;;;;;;;;;5056222;28;20438;-59
2023/12/30 11:35:31;;;;;;;1.90;0.57;;;;;;;;;;5055917;28;20029;-59
2023/12/30 11:37:58;;;;;;;0.38;0.17;;;;;;;;;;5056218;28;20025;-58
2023/12/30 11:40:26;;;;;;;0.95;0.50;;;;;;;;;;5056927;28;20025;-59
2023/12/30 11:42:52;;;;;;;0.68;0.22;;;;;;;;;;5056663;28;20462;-59
2023/12/30 11:45:18;;;;;;;0.88;0.30;;;;;;;;;;5056292;28;20032;-58
2023/12/30 11:47:45;;;;;;;1.48;0.50;;;;;;;;;;5055750;28;20124;-59
2023/12/30 11:50:46;;;;;;;0.68;0.30;;;;;;;;;;5055764;28;20029;-59
2023/12/30 11:53:12;;;;;;;0.63;0.30;;;;;;;;;;5052409;28;20029;-59
2023/12/30 11:55:38;;;;;;;0.77;0.35;;;;;;;;;;5055700;28;20049;-58
2023/12/30 11:58:04;;;;;;;0.43;0.20;;;;;;;;;;5055305;28;20037;-58
2023/12/30 12:00:30;;;;;;;0.65;0.30;;;;;;;;;;5055592;28;20024;-59
2023/12/30 12:02:57;;;;;;;1.45;0.52;;;;;;;;;;5055697;28;20029;-59
2023/12/30 12:05:23;;;;;;;1.27;0.38;;;;;;;;;;5055909;28;20029;-59
2023/12/30 12:07:49;;;;;;;1.60;0.50;;;;;;;;;;5056002;28;20476;-59
2023/12/30 12:10:15;;;;;;;1.02;0.45;;;;;;;;;;5055560;28;20450;-58
2023/12/30 12:12:45;;;;;;;0.68;0.30;;;;;;;;;;5055415;28;20078;-59
2023/12/30 12:15:11;;;;;;;0.52;0.30;;;;;;;;;;5055282;28;20459;-59
2023/12/30 12:17:37;;;;;;;2.15;0.73;;;;;;;;;;5055637;28;20435;-59
2023/12/30 12:20:07;;;;;;;1.50;0.55;;;;;;;;;;5055432;28;20086;-59
2023/12/30 12:22:33;;;;;;;1.42;0.47;;;;;;;;;;5055338;28;20414;-59
2023/12/30 12:25:01;;;;;;;2.45;0.50;;;;;;;;;;5055305;28;20029;-59
2023/12/30 12:27:27;;;;;;;2.05;0.60;;;;;;;;;;5055751;28;20054;-59
2023/12/30 12:29:54;;;;;;;0.95;0.52;;;;;;;;;;5055084;28;20481;-59
2023/12/30 12:32:21;;;;;;;2.53;0.60;;;;;;;;;;5055616;28;20052;-59
2023/12/30 12:34:47;;;;;;;0.30;0.20;;;;;;;;;;5055027;28;20067;-59
2023/12/30 12:37:17;;;;;;;0.40;0.20;;;;;;;;;;5054989;28;20036;-59
2023/12/30 12:39:43;;;;;;;1.60;0.52;;;;;;;;;;5055728;28;20025;-59
2023/12/30 12:42:10;;;;;;;0.43;0.20;;;;;;;;;;5055345;28;20036;-59
2023/12/30 12:44:36;;;;;;;0.28;0.10;;;;;;;;;;5054471;28;20029;-59
2023/12/30 12:47:02;;;;;;;0.47;0.28;;;;;;;;;;5054900;28;20039;-59
2023/12/30 12:49:28;;;;;;;0.70;0.30;;;;;;;;;;5054850;28;20083;-59
2023/12/30 12:51:54;;;;;;;1.48;0.50;;;;;;;;;;5054727;28;20032;-59
2023/12/30 12:54:20;;;;;;;1.27;0.50;;;;;;;;;;5054616;28;20356;-59
2023/12/30 12:56:46;;;;;;;0.50;0.22;;;;;;;;;;5054760;28;20049;-59
2023/12/30 12:59:12;;;;;;;0.70;0.22;;;;;;;;;;5054751;28;20021;-59
2023/12/30 13:01:38;;;;;;;0.63;0.30;;;;;;;;;;5054676;28;20417;-59
2023/12/30 13:04:04;;;;;;;2.03;0.60;;;;;;;;;;5054312;28;20021;-59
2023/12/30 13:06:30;;;;;;;0.93;0.38;;;;;;;;;;5054609;28;20029;-58
2023/12/30 13:08:58;;;;;;;0.85;0.38;;;;;;;;;;5055031;28;20120;-59
2023/12/30 13:11:31;;;;;;;0.73;0.40;;;;;;;;;;5054442;28;20107;-59
2023/12/30 13:13:57;;;;;;;0.65;0.40;;;;;;;;;;5054303;28;20067;-58
2023/12/30 13:16:24;;;;;;;1.40;0.88;;;;;;;;;;5054354;28;20068;-59
2023/12/30 13:18:50;;;;;;;0.70;0.50;;;;;;;;;;5054949;28;20025;-59
2023/12/30 13:21:16;;;;;;;0.38;0.20;;;;;;;;;;5053729;28;20021;-59
2023/12/30 13:23:42;;;;;;;0.70;0.40;;;;;;;;;;5054225;28;20108;-58
2023/12/30 13:26:08;;;;;;;0.80;0.35;;;;;;;;;;5055051;28;20074;-58
2023/12/30 13:28:34;;;;;;;2.05;0.50;;;;;;;;;;5054772;28;20025;-59
2023/12/30 13:31:00;;;;;;;0.68;0.35;;;;;;;;;;5054153;28;20482;-59
2023/12/30 13:33:26;;;;;;;1.25;0.65;;;;;;;;;;5054440;28;20028;-59
2023/12/30 13:35:52;;;;;;;0.88;0.40;;;;;;;;;;5053796;28;20021;-60
2023/12/30 13:38:23;;;;;;;1.27;0.40;;;;;;;;;;5054375;28;20471;-60
2023/12/30 13:40:53;;;;;;;0.45;0.20;;;;;;;;;;5053430;28;20029;-60
2023/12/30 13:43:20;;;;;;;1.05;0.47;;;;;;;;;;5054204;28;20058;-59
2023/12/30 13:45:47;;;;;;;1.65;0.30;;;;;;;;;;5053788;28;20027;-60
2023/12/30 13:51:04;;;;;;;13.52;0.40;;;;;;;;;;5053629;28;20082;-59
2023/12/30 13:53:30;;;;;;;0.63;0.30;;;;;;;;;;5053807;28;20033;-59
2023/12/30 13:56:01;;;;;;;2.00;0.60;;;;;;;;;;5054340;28;20045;-58
2023/12/30 13:58:30;;;;;;;1.05;0.40;;;;;;;;;;5054366;28;20036;-59
2023/12/30 14:00:56;;;;;;;0.65;0.25;;;;;;;;;;5053743;28;20040;-59
2023/12/30 14:03:23;;;;;;;0.57;0.20;;;;;;;;;;5053601;28;20021;-60
2023/12/30 14:05:49;;;;;;;0.25;0.10;;;;;;;;;;5053656;28;20033;-58
2023/12/30 14:08:30;;;;;;;0.80;0.38;;;;;;;;;;5053723;28;20039;-58
2023/12/30 14:10:56;;;;;;;0.82;0.43;;;;;;;;;;5054336;28;20099;-58
2023/12/30 14:13:23;;;;;;;0.52;0.20;;;;;;;;;;5054181;28;20029;-58
2023/12/30 14:15:51;;;;;;;0.80;0.40;;;;;;;;;;5053523;28;20374;-58
2023/12/30 14:18:17;;;;;;;0.82;0.30;;;;;;;;;;5053852;28;20459;-58
2023/12/30 14:20:43;;;;;;;0.22;0.17;;;;;;;;;;5053480;28;20366;-58
2023/12/30 14:23:10;;;;;;;1.00;0.43;;;;;;;;;;5054278;28;20032;-58
2023/12/30 14:25:36;;;;;;;0.70;0.30;;;;;;;;;;5053614;28;20029;-58
2023/12/30 14:28:03;;;;;;;0.70;0.32;;;;;;;;;;5054040;28;20521;-59
2023/12/30 14:30:30;;;;;;;0.73;0.38;;;;;;;;;;5053303;28;20029;-58
2023/12/30 14:32:57;;;;;;;0.85;0.50;;;;;;;;;;5053216;28;20162;-59
2023/12/30 14:35:23;;;;;;;0.95;0.40;;;;;;;;;;5053400;28;20394;-58
2023/12/30 14:37:49;;;;;;;0.88;0.20;;;;;;;;;;5053685;28;20037;-58
2023/12/30 14:40:15;;;;;;;2.03;0.57;;;;;;;;;;5053909;28;20367;-58
2023/12/30 14:42:43;;;;;;;1.25;0.60;;;;;;;;;;5053779;28;20029;-58